Time;durP1;ratioP1;P1;durP2;ratioP2;P2;SDS_P1;SDS_P2;PMS_P1;PMS_P2;Temp;Humidity;BMP_temperature;BMP_pressure;BME280_temperature;BME280_humidity;BME280_pressure;Samples;Min_cycle;Max_cycle;Signal;HPM_P1;HPM_P2
2023/04/17 00:00:09;;;;;;;55.33;27.02;;;;;;;;;;5073833;27;94011;-71
2023/04/17 00:02:38;;;;;;;48.97;25.77;;;;;;;;;;5072502;27;94622;-71
2023/04/17 00:05:08;;;;;;;48.47;25.97;;;;;;;;;;5068965;27;93474;-71
2023/04/17 00:07:37;;;;;;;47.38;25.15;;;;;;;;;;5066793;27;92492;-72
2023/04/17 00:10:07;;;;;;;44.97;24.33;;;;;;;;;;5062201;27;97410;-71
2023/04/17 00:12:34;;;;;;;45.27;23.13;;;;;;;;;;5066839;27;92599;-70
2023/04/17 00:15:00;;;;;;;51.58;26.40;;;;;;;;;;5073815;27;93204;-71
2023/04/17 00:17:27;;;;;;;49.63;26.35;;;;;;;;;;5064825;27;93680;-71
2023/04/17 00:19:53;;;;;;;51.75;26.13;;;;;;;;;;5056131;27;93052;-71
2023/04/17 00:22:19;;;;;;;56.63;25.98;;;;;;;;;;5061788;27;93559;-71
2023/04/17 00:24:46;;;;;;;54.22;26.73;;;;;;;;;;5055891;27;94402;-71
2023/04/17 00:27:12;;;;;;;52.40;27.05;;;;;;;;;;5056939;27;92036;-71
2023/04/17 00:29:38;;;;;;;62.83;27.40;;;;;;;;;;5063909;27;92655;-71
2023/04/17 00:32:05;;;;;;;55.53;26.77;;;;;;;;;;5076241;27;92429;-71
2023/04/17 00:34:31;;;;;;;47.25;26.30;;;;;;;;;;5064761;27;96070;-72
2023/04/17 00:36:58;;;;;;;51.67;27.48;;;;;;;;;;5055516;27;93381;-71
2023/04/17 00:39:24;;;;;;;54.65;28.10;;;;;;;;;;5055847;27;92426;-71
2023/04/17 00:41:51;;;;;;;62.95;27.85;;;;;;;;;;5062565;27;93386;-71
2023/04/17 00:44:17;;;;;;;56.33;28.40;;;;;;;;;;5057193;27;93481;-72
2023/04/17 00:46:43;;;;;;;56.47;26.65;;;;;;;;;;5068410;27;92529;-71
2023/04/17 00:49:10;;;;;;;54.08;26.52;;;;;;;;;;5060485;27;93369;-71
2023/04/17 00:51:37;;;;;;;51.70;24.92;;;;;;;;;;5059291;27;96135;-71
2023/04/17 00:54:03;;;;;;;43.97;22.80;;;;;;;;;;5063761;27;92862;-71
2023/04/17 00:56:30;;;;;;;40.70;22.60;;;;;;;;;;5069524;27;94855;-71
2023/04/17 00:58:57;;;;;;;33.55;19.42;;;;;;;;;;5062358;27;95152;-71
2023/04/17 01:01:24;;;;;;;31.60;20.42;;;;;;;;;;5063727;27;95602;-71
2023/04/17 01:03:51;;;;;;;32.53;18.38;;;;;;;;;;5070755;27;93414;-71
2023/04/17 01:06:18;;;;;;;27.67;17.15;;;;;;;;;;5064933;27;92446;-71
2023/04/17 01:08:44;;;;;;;32.17;18.33;;;;;;;;;;5058818;27;93162;-71
2023/04/17 01:11:11;;;;;;;34.42;18.42;;;;;;;;;;5072007;27;94208;-71
2023/04/17 01:13:46;;;;;;;29.75;17.58;;;;;;;;;;5067843;27;92863;-71
2023/04/17 01:16:13;;;;;;;36.53;18.20;;;;;;;;;;5056206;27;92928;-71
2023/04/17 01:18:39;;;;;;;27.58;17.13;;;;;;;;;;5062872;27;92466;-71
2023/04/17 01:21:06;;;;;;;26.25;16.55;;;;;;;;;;5069849;27;93544;-71
2023/04/17 01:23:42;;;;;;;25.10;16.23;;;;;;;;;;5053208;27;95901;-71
2023/04/17 01:26:09;;;;;;;28.33;17.02;;;;;;;;;;5055539;27;92388;-72
2023/04/17 01:28:35;;;;;;;34.40;16.73;;;;;;;;;;5054850;27;93241;-72
2023/04/17 01:31:01;;;;;;;28.63;15.85;;;;;;;;;;5063893;27;93462;-72
2023/04/17 01:33:28;;;;;;;25.65;15.18;;;;;;;;;;5077159;27;92489;-72
2023/04/17 01:35:54;;;;;;;27.30;15.68;;;;;;;;;;5058308;27;93367;-72
2023/04/17 01:38:20;;;;;;;32.17;17.02;;;;;;;;;;5055060;27;92463;-72
2023/04/17 01:40:46;;;;;;;28.63;17.05;;;;;;;;;;5054850;27;93384;-72
2023/04/17 01:43:13;;;;;;;25.98;16.38;;;;;;;;;;5066197;27;93470;-72
2023/04/17 01:45:39;;;;;;;25.92;16.00;;;;;;;;;;5062466;27;92367;-71
2023/04/17 01:48:05;;;;;;;28.73;15.93;;;;;;;;;;5057466;27;96288;-71
2023/04/17 01:50:32;;;;;;;28.83;15.55;;;;;;;;;;5064496;27;93773;-72
2023/04/17 01:52:58;;;;;;;27.63;15.75;;;;;;;;;;5072548;27;92470;-72
2023/04/17 01:55:24;;;;;;;25.88;15.15;;;;;;;;;;5070547;27;93140;-71
2023/04/17 01:57:50;;;;;;;24.50;15.15;;;;;;;;;;5062608;27;93268;-73
2023/04/17 02:00:17;;;;;;;26.90;15.65;;;;;;;;;;5070166;27;96962;-71
2023/04/17 02:02:44;;;;;;;29.83;17.20;;;;;;;;;;5041232;27;94724;-71
2023/04/17 02:05:10;;;;;;;28.73;16.85;;;;;;;;;;5071420;27;91769;-72
2023/04/17 02:07:37;;;;;;;27.63;16.92;;;;;;;;;;5056682;27;93653;-71
2023/04/17 02:10:03;;;;;;;29.85;17.08;;;;;;;;;;5066105;27;93439;-71
2023/04/17 02:12:29;;;;;;;27.92;16.48;;;;;;;;;;5056234;27;94926;-71
2023/04/17 02:14:59;;;;;;;30.85;17.98;;;;;;;;;;5060118;27;96360;-72
2023/04/17 02:17:26;;;;;;;32.53;16.75;;;;;;;;;;5070247;27;93314;-71
2023/04/17 02:19:52;;;;;;;26.83;16.35;;;;;;;;;;5074286;27;93174;-71
2023/04/17 02:22:19;;;;;;;32.08;16.95;;;;;;;;;;5057456;27;93503;-71
2023/04/17 02:24:45;;;;;;;29.60;16.88;;;;;;;;;;5064020;27;92490;-71
2023/04/17 02:27:11;;;;;;;29.58;17.23;;;;;;;;;;5053688;27;93593;-70
2023/04/17 02:29:38;;;;;;;31.42;17.27;;;;;;;;;;5055261;27;92685;-71
2023/04/17 02:32:04;;;;;;;29.25;16.80;;;;;;;;;;5053706;27;92443;-71
2023/04/17 02:34:30;;;;;;;30.92;17.15;;;;;;;;;;5054108;27;93197;-71
2023/04/17 02:36:57;;;;;;;30.80;17.67;;;;;;;;;;5069827;27;96034;-72
2023/04/17 02:39:23;;;;;;;35.58;17.83;;;;;;;;;;5069976;27;92435;-71
2023/04/17 02:41:49;;;;;;;25.95;16.92;;;;;;;;;;5060274;27;93520;-71
2023/04/17 02:44:16;;;;;;;29.27;17.13;;;;;;;;;;5068113;27;92464;-71
2023/04/17 02:46:42;;;;;;;30.90;17.33;;;;;;;;;;5056850;27;92529;-71
2023/04/17 02:49:08;;;;;;;42.20;18.80;;;;;;;;;;5059868;27;94822;-71
2023/04/17 02:51:35;;;;;;;32.00;19.13;;;;;;;;;;5073955;27;92896;-71
2023/04/17 02:54:01;;;;;;;31.75;17.50;;;;;;;;;;5073966;27;93292;-72
2023/04/17 02:56:27;;;;;;;28.95;18.45;;;;;;;;;;5068873;27;93342;-72
2023/04/17 02:58:54;;;;;;;28.50;16.98;;;;;;;;;;5062566;27;92519;-71
2023/04/17 03:01:21;;;;;;;32.70;18.40;;;;;;;;;;5059464;27;95039;-71
2023/04/17 03:03:47;;;;;;;31.58;18.73;;;;;;;;;;5064861;27;92673;-71
2023/04/17 03:06:14;;;;;;;26.38;17.60;;;;;;;;;;5073717;27;95578;-71
2023/04/17 03:08:40;;;;;;;31.08;19.15;;;;;;;;;;5055628;27;93490;-71
2023/04/17 03:11:07;;;;;;;33.88;18.77;;;;;;;;;;5058759;27;93785;-71
2023/04/17 03:13:35;;;;;;;34.53;19.48;;;;;;;;;;5066261;27;92550;-71
2023/04/17 03:16:03;;;;;;;33.05;19.63;;;;;;;;;;5058824;27;93277;-71
2023/04/17 03:18:30;;;;;;;33.80;18.92;;;;;;;;;;5067008;27;91742;-71
2023/04/17 03:20:56;;;;;;;33.65;20.30;;;;;;;;;;5071590;27;92495;-71
2023/04/17 03:23:22;;;;;;;33.28;20.73;;;;;;;;;;5074066;27;93774;-71
2023/04/17 03:25:49;;;;;;;34.22;19.05;;;;;;;;;;5072368;27;94907;-71
2023/04/17 03:28:15;;;;;;;34.45;20.27;;;;;;;;;;5070969;27;93378;-71
2023/04/17 03:30:41;;;;;;;37.17;20.75;;;;;;;;;;5068597;27;92509;-71
2023/04/17 03:33:08;;;;;;;33.97;19.67;;;;;;;;;;5069083;27;92970;-71
2023/04/17 03:35:34;;;;;;;36.67;19.50;;;;;;;;;;5073796;27;93933;-72
2023/04/17 03:38:01;;;;;;;34.72;19.52;;;;;;;;;;5075036;27;92704;-71
2023/04/17 03:40:27;;;;;;;34.13;19.17;;;;;;;;;;5073591;27;93547;-71
2023/04/17 03:42:53;;;;;;;39.80;21.35;;;;;;;;;;5055398;27;93652;-71
2023/04/17 03:45:20;;;;;;;37.55;19.52;;;;;;;;;;5071024;27;92801;-72
2023/04/17 03:47:46;;;;;;;34.67;19.88;;;;;;;;;;5066525;27;93411;-71
2023/04/17 03:50:13;;;;;;;44.00;21.77;;;;;;;;;;5061425;27;95029;-71
2023/04/17 03:52:39;;;;;;;37.47;20.60;;;;;;;;;;5066742;27;96000;-71
2023/04/17 03:55:06;;;;;;;38.17;21.95;;;;;;;;;;5072886;27;94422;-71
2023/04/17 03:57:32;;;;;;;38.70;21.65;;;;;;;;;;5041868;27;92570;-72
2023/04/17 03:59:58;;;;;;;38.15;20.98;;;;;;;;;;5054026;27;96124;-71
2023/04/17 04:02:25;;;;;;;39.25;21.30;;;;;;;;;;5060608;27;93474;-72
2023/04/17 04:04:52;;;;;;;35.83;20.30;;;;;;;;;;5071781;27;93400;-72
2023/04/17 04:07:20;;;;;;;33.55;20.55;;;;;;;;;;5066548;27;92729;-71
2023/04/17 04:09:46;;;;;;;35.40;20.25;;;;;;;;;;5066506;27;92772;-71
2023/04/17 04:12:12;;;;;;;34.80;20.63;;;;;;;;;;5053589;27;93196;-71
2023/04/17 04:14:39;;;;;;;37.70;20.70;;;;;;;;;;5069223;27;96479;-71
2023/04/17 04:17:07;;;;;;;35.47;20.35;;;;;;;;;;5066485;27;94765;-71
2023/04/17 04:19:33;;;;;;;35.08;20.13;;;;;;;;;;5059784;27;93210;-72
2023/04/17 04:22:00;;;;;;;38.40;20.88;;;;;;;;;;5066008;27;93403;-71
2023/04/17 04:24:27;;;;;;;34.17;20.17;;;;;;;;;;5073902;27;94145;-72
2023/04/17 04:26:53;;;;;;;39.88;21.38;;;;;;;;;;5075680;27;93614;-71
2023/04/17 04:29:24;;;;;;;42.92;21.55;;;;;;;;;;5066507;27;92532;-71
2023/04/17 04:31:50;;;;;;;;;;;;;;;;;;5064975;27;94499;-71
2023/04/17 04:34:16;;;;;;;38.60;21.83;;;;;;;;;;5076119;27;124413;-71
2023/04/17 04:36:48;;;;;;;37.58;21.45;;;;;;;;;;5075404;27;92543;-71
2023/04/17 04:39:21;;;;;;;39.40;21.77;;;;;;;;;;5072903;27;94832;-71
2023/04/17 04:41:49;;;;;;;47.13;23.50;;;;;;;;;;5073435;27;94436;-71
2023/04/17 04:44:16;;;;;;;40.00;23.48;;;;;;;;;;5066446;27;93247;-71
2023/04/17 04:46:42;;;;;;;44.28;22.60;;;;;;;;;;5059893;27;94087;-71
2023/04/17 04:49:09;;;;;;;45.50;22.67;;;;;;;;;;5076905;27;93741;-72
2023/04/17 04:51:35;;;;;;;47.92;22.52;;;;;;;;;;5076174;27;94279;-71
2023/04/17 04:54:02;;;;;;;40.70;23.30;;;;;;;;;;5073851;27;94663;-71
2023/04/17 04:56:28;;;;;;;43.83;22.60;;;;;;;;;;5075603;27;91702;-71
2023/04/17 04:58:58;;;;;;;38.53;22.00;;;;;;;;;;5075175;27;92928;-71
2023/04/17 05:01:24;;;;;;;38.78;21.33;;;;;;;;;;5071221;27;93437;-71
2023/04/17 05:03:50;;;;;;;41.53;21.20;;;;;;;;;;5060193;27;96194;-72
2023/04/17 05:06:18;;;;;;;39.90;22.45;;;;;;;;;;5056605;27;95591;-71
2023/04/17 05:08:44;;;;;;;42.70;22.63;;;;;;;;;;5057800;27;93810;-71
2023/04/17 05:11:11;;;;;;;40.42;22.00;;;;;;;;;;5066250;27;93021;-71
2023/04/17 05:13:37;;;;;;;42.65;23.25;;;;;;;;;;5069484;27;94504;-72
2023/04/17 05:16:03;;;;;;;46.80;23.63;;;;;;;;;;5072301;27;92465;-71
2023/04/17 05:18:30;;;;;;;44.45;23.13;;;;;;;;;;5054984;27;94041;-71
2023/04/17 05:20:56;;;;;;;41.95;23.95;;;;;;;;;;5062512;27;92854;-71
2023/04/17 05:23:23;;;;;;;48.28;23.98;;;;;;;;;;5065903;27;93294;-71
2023/04/17 05:25:49;;;;;;;46.97;24.60;;;;;;;;;;5074666;27;93448;-72
2023/04/17 05:28:15;;;;;;;44.75;23.67;;;;;;;;;;5072390;27;96223;-72
2023/04/17 05:30:43;;;;;;;41.95;23.48;;;;;;;;;;5061989;27;92420;-71
2023/04/17 05:33:09;;;;;;;47.63;23.92;;;;;;;;;;5071826;27;93287;-71
2023/04/17 05:35:35;;;;;;;45.70;24.45;;;;;;;;;;5068142;27;92721;-72
2023/04/17 05:38:03;;;;;;;44.30;24.60;;;;;;;;;;5062350;27;93282;-72
2023/04/17 05:40:29;;;;;;;48.80;23.92;;;;;;;;;;5070062;27;94131;-71
2023/04/17 05:42:56;;;;;;;43.83;23.48;;;;;;;;;;5071594;27;92614;-71
2023/04/17 05:45:22;;;;;;;42.50;23.17;;;;;;;;;;5073729;27;93523;-71
2023/04/17 05:47:51;;;;;;;42.75;22.77;;;;;;;;;;5071815;27;94398;-71
2023/04/17 05:50:17;;;;;;;42.25;21.90;;;;;;;;;;5071210;27;93889;-71
2023/04/17 05:52:46;;;;;;;43.38;24.35;;;;;;;;;;5073778;27;94843;-71
2023/04/17 05:55:13;;;;;;;43.63;23.77;;;;;;;;;;5054330;27;92473;-72
2023/04/17 05:57:39;;;;;;;46.63;25.00;;;;;;;;;;5065105;27;93208;-71
2023/04/17 06:00:12;;;;;;;44.80;23.63;;;;;;;;;;5064186;27;93818;-72
2023/04/17 06:02:41;;;;;;;46.42;24.38;;;;;;;;;;5065562;27;92479;-71
2023/04/17 06:05:08;;;;;;;44.27;22.97;;;;;;;;;;5068817;27;94339;-71
2023/04/17 06:07:37;;;;;;;46.17;24.83;;;;;;;;;;5073860;27;93800;-71
2023/04/17 06:10:04;;;;;;;50.95;25.13;;;;;;;;;;5068899;27;92520;-72
2023/04/17 06:12:31;;;;;;;47.28;25.73;;;;;;;;;;5066732;27;92421;-73
2023/04/17 06:14:57;;;;;;;44.25;24.73;;;;;;;;;;5070419;27;95136;-73
2023/04/17 06:17:23;;;;;;;43.65;23.48;;;;;;;;;;5058072;27;95242;-73
2023/04/17 06:19:49;;;;;;;53.88;26.02;;;;;;;;;;5048282;27;93258;-73
2023/04/17 06:22:16;;;;;;;49.97;25.13;;;;;;;;;;5061956;27;93341;-73
2023/04/17 06:24:42;;;;;;;52.03;26.70;;;;;;;;;;5070139;27;93856;-73
2023/04/17 06:27:09;;;;;;;48.30;25.38;;;;;;;;;;5074488;27;93863;-74
2023/04/17 06:29:35;;;;;;;50.78;25.90;;;;;;;;;;5072092;27;93833;-75
2023/04/17 06:32:01;;;;;;;52.92;26.23;;;;;;;;;;5064867;27;93561;-74
2023/04/17 06:34:28;;;;;;;57.78;25.80;;;;;;;;;;5066735;27;92691;-75
2023/04/17 06:36:54;;;;;;;50.88;26.65;;;;;;;;;;5062115;27;92949;-73
2023/04/17 06:39:21;;;;;;;52.80;26.15;;;;;;;;;;5073495;27;93665;-74
2023/04/17 06:41:49;;;;;;;50.13;26.83;;;;;;;;;;5071115;27;94832;-75
2023/04/17 06:44:15;;;;;;;51.75;26.75;;;;;;;;;;5059055;27;95642;-74
2023/04/17 06:46:41;;;;;;;61.33;27.73;;;;;;;;;;5053369;27;93310;-74
2023/04/17 06:49:08;;;;;;;53.70;26.85;;;;;;;;;;5056726;27;92471;-74
2023/04/17 06:51:34;;;;;;;61.17;28.70;;;;;;;;;;5073001;27;93571;-74
2023/04/17 06:54:00;;;;;;;66.63;29.00;;;;;;;;;;5058282;27;93659;-74
2023/04/17 06:56:27;;;;;;;57.97;27.25;;;;;;;;;;5066347;27;92685;-75
2023/04/17 06:58:53;;;;;;;56.97;28.38;;;;;;;;;;5072765;27;93239;-74
2023/04/17 07:01:19;;;;;;;57.75;28.77;;;;;;;;;;5057809;27;93216;-74
2023/04/17 07:03:46;;;;;;;56.03;28.50;;;;;;;;;;5061673;27;92959;-74
2023/04/17 07:06:12;;;;;;;60.78;29.60;;;;;;;;;;5065666;27;96805;-74
2023/04/17 07:08:39;;;;;;;56.08;28.40;;;;;;;;;;5056833;27;92607;-74
2023/04/17 07:11:05;;;;;;;56.58;27.42;;;;;;;;;;5062888;27;94054;-74
2023/04/17 07:13:31;;;;;;;50.50;26.13;;;;;;;;;;5073620;27;93512;-73
2023/04/17 07:16:00;;;;;;;50.58;26.77;;;;;;;;;;5070324;27;92472;-74
2023/04/17 07:18:28;;;;;;;53.67;25.85;;;;;;;;;;5055821;27;93186;-74
2023/04/17 07:20:55;;;;;;;52.30;26.75;;;;;;;;;;5060915;27;93812;-74
2023/04/17 07:23:21;;;;;;;48.28;24.88;;;;;;;;;;5058805;27;93198;-74
2023/04/17 07:25:48;;;;;;;46.95;25.00;;;;;;;;;;5057874;27;93608;-74
2023/04/17 07:28:14;;;;;;;52.80;25.77;;;;;;;;;;5064680;27;93247;-73
2023/04/17 07:30:41;;;;;;;51.35;25.10;;;;;;;;;;5063371;27;94881;-74
2023/04/17 07:33:08;;;;;;;51.38;25.23;;;;;;;;;;5062826;27;93272;-74
2023/04/17 07:35:34;;;;;;;47.60;24.63;;;;;;;;;;5071460;27;92569;-75
2023/04/17 07:38:02;;;;;;;47.78;25.92;;;;;;;;;;5068424;27;93229;-75
2023/04/17 07:40:30;;;;;;;49.28;24.50;;;;;;;;;;5064218;27;93656;-74
2023/04/17 07:42:56;;;;;;;46.10;25.05;;;;;;;;;;5065459;27;93794;-74
2023/04/17 07:45:22;;;;;;;50.97;24.05;;;;;;;;;;5046646;27;93391;-74
2023/04/17 07:47:52;;;;;;;47.08;25.02;;;;;;;;;;5045354;27;92297;-74
2023/04/17 07:50:18;;;;;;;47.95;25.98;;;;;;;;;;5061440;27;94252;-72
2023/04/17 07:52:45;;;;;;;44.78;24.80;;;;;;;;;;5069588;27;93191;-73
2023/04/17 07:55:11;;;;;;;42.50;24.52;;;;;;;;;;5033232;27;94813;-73
2023/04/17 07:57:42;;;;;;;43.28;23.98;;;;;;;;;;5049305;27;96754;-74
2023/04/17 08:00:09;;;;;;;46.38;23.90;;;;;;;;;;5066532;27;93524;-74
2023/04/17 08:02:35;;;;;;;46.20;23.05;;;;;;;;;;5056141;27;93781;-73
2023/04/17 08:05:04;;;;;;;44.33;24.75;;;;;;;;;;5061941;27;93623;-74
2023/04/17 08:07:31;;;;;;;41.03;22.95;;;;;;;;;;5054241;27;92799;-75
2023/04/17 08:09:57;;;;;;;43.72;23.88;;;;;;;;;;5066455;27;94389;-74
2023/04/17 08:12:23;;;;;;;44.25;22.80;;;;;;;;;;5065286;27;92519;-74
2023/04/17 08:14:50;;;;;;;44.47;22.90;;;;;;;;;;5068003;27;92582;-74
2023/04/17 08:17:21;;;;;;;43.83;22.98;;;;;;;;;;5059297;27;94230;-74
2023/04/17 08:19:52;;;;;;;45.03;24.50;;;;;;;;;;5061430;27;96015;-74
2023/04/17 08:22:23;;;;;;;39.47;22.27;;;;;;;;;;5073051;27;92504;-74
2023/04/17 08:24:53;;;;;;;43.22;24.38;;;;;;;;;;5079471;27;93205;-74
2023/04/17 08:27:19;;;;;;;47.25;24.80;;;;;;;;;;5052647;27;92556;-74
2023/04/17 08:29:46;;;;;;;45.58;24.58;;;;;;;;;;5065173;27;92551;-74
2023/04/17 08:32:12;;;;;;;41.15;25.20;;;;;;;;;;5069556;27;94111;-74
2023/04/17 08:34:41;;;;;;;46.35;25.67;;;;;;;;;;5065776;27;94429;-73
2023/04/17 08:37:07;;;;;;;47.33;25.58;;;;;;;;;;5066654;27;95314;-72
2023/04/17 08:39:34;;;;;;;41.60;23.55;;;;;;;;;;5063446;27;94882;-73
2023/04/17 08:42:02;;;;;;;40.63;23.40;;;;;;;;;;5065575;27;93273;-75
2023/04/17 08:44:29;;;;;;;43.28;24.80;;;;;;;;;;5068383;27;95832;-72
2023/04/17 08:46:57;;;;;;;43.67;24.40;;;;;;;;;;5065716;27;93863;-75
2023/04/17 08:49:23;;;;;;;43.45;24.27;;;;;;;;;;5055696;27;96188;-71
2023/04/17 08:51:50;;;;;;;46.83;23.23;;;;;;;;;;5069035;27;93706;-71
2023/04/17 08:54:18;;;;;;;45.20;24.83;;;;;;;;;;5067557;27;92746;-72
2023/04/17 08:56:45;;;;;;;44.88;24.90;;;;;;;;;;5064220;27;94344;-69
2023/04/17 08:59:11;;;;;;;47.53;24.38;;;;;;;;;;5074076;27;93748;-73
2023/04/17 09:01:38;;;;;;;39.08;23.77;;;;;;;;;;5048956;27;91905;-71
2023/04/17 09:04:04;;;;;;;45.75;25.80;;;;;;;;;;5037569;27;93014;-72
2023/04/17 09:06:47;;;;;;;39.65;23.40;;;;;;;;;;5063612;27;93831;-71
2023/04/17 09:09:14;;;;;;;43.50;23.85;;;;;;;;;;5065994;27;94955;-71
2023/04/17 09:11:40;;;;;;;43.30;23.42;;;;;;;;;;5050649;27;93674;-72
2023/04/17 09:14:27;;;;;;;36.72;22.88;;;;;;;;;;5065075;27;93950;-72
2023/04/17 09:16:53;;;;;;;43.95;22.33;;;;;;;;;;5068403;27;94154;-72
2023/04/17 09:19:21;;;;;;;41.45;21.45;;;;;;;;;;5067308;27;93657;-73
2023/04/17 09:21:47;;;;;;;34.28;20.67;;;;;;;;;;5061394;27;94026;-73
2023/04/17 09:24:13;;;;;;;32.60;20.65;;;;;;;;;;5061729;27;93214;-72
2023/04/17 09:26:40;;;;;;;35.42;20.83;;;;;;;;;;5060805;27;92747;-72
2023/04/17 09:29:10;;;;;;;27.80;18.75;;;;;;;;;;5054356;27;93665;-73
2023/04/17 09:31:38;;;;;;;28.60;18.67;;;;;;;;;;5066651;27;93188;-72
2023/04/17 09:34:06;;;;;;;28.02;18.05;;;;;;;;;;5058782;27;94911;-73
2023/04/17 09:36:37;;;;;;;27.73;18.73;;;;;;;;;;5074740;27;95595;-71
2023/04/17 09:39:03;;;;;;;;;;;;;;;;;;5062636;27;94258;-74
2023/04/17 09:41:38;;;;;;;28.92;17.75;;;;;;;;;;5066550;27;120181;-74
2023/04/17 09:44:05;;;;;;;28.08;18.38;;;;;;;;;;5046482;27;94272;-75
2023/04/17 09:46:31;;;;;;;29.42;17.85;;;;;;;;;;5067601;27;93582;-73
2023/04/17 09:49:03;;;;;;;30.30;18.42;;;;;;;;;;5064743;27;92570;-73
2023/04/17 09:51:30;;;;;;;24.58;17.70;;;;;;;;;;5041630;27;93414;-73
2023/04/17 09:53:57;;;;;;;33.85;19.55;;;;;;;;;;5067085;27;93094;-73
2023/04/17 09:56:25;;;;;;;28.00;18.33;;;;;;;;;;5061560;27;94446;-72
2023/04/17 09:58:52;;;;;;;32.95;19.33;;;;;;;;;;5059651;27;96458;-73
2023/04/17 10:01:18;;;;;;;33.38;19.90;;;;;;;;;;5057716;27;92470;-73
2023/04/17 10:03:45;;;;;;;28.42;18.98;;;;;;;;;;5066134;27;93128;-74
2023/04/17 10:06:12;;;;;;;25.98;19.25;;;;;;;;;;5067461;27;93601;-74
2023/04/17 10:08:38;;;;;;;29.50;20.08;;;;;;;;;;5051974;27;92683;-73
2023/04/17 10:11:06;;;;;;;32.58;19.52;;;;;;;;;;5066847;27;94558;-74
2023/04/17 10:13:34;;;;;;;27.40;18.13;;;;;;;;;;5068086;27;93876;-73
2023/04/17 10:16:00;;;;;;;31.25;18.13;;;;;;;;;;5062755;27;93439;-73
2023/04/17 10:18:27;;;;;;;29.23;18.70;;;;;;;;;;5067841;27;93653;-73
2023/04/17 10:20:54;;;;;;;26.50;17.98;;;;;;;;;;5069781;27;92433;-73
2023/04/17 10:23:28;;;;;;;31.30;18.92;;;;;;;;;;5066964;27;95822;-73
2023/04/17 10:26:13;;;;;;;29.65;17.63;;;;;;;;;;5073551;27;94821;-73
2023/04/17 10:28:47;;;;;;;25.92;18.73;;;;;;;;;;5059187;27;92473;-73
2023/04/17 10:31:13;;;;;;;30.95;19.55;;;;;;;;;;5057108;27;93523;-74
2023/04/17 10:33:47;;;;;;;28.77;18.73;;;;;;;;;;5066328;27;94393;-75
2023/04/17 10:36:33;;;;;;;28.20;19.45;;;;;;;;;;5057977;27;93834;-74
2023/04/17 10:39:12;;;;;;;26.08;18.98;;;;;;;;;;5053787;27;93409;-75
2023/04/17 10:41:57;;;;;;;26.63;19.60;;;;;;;;;;5053110;27;91892;-75
2023/04/17 10:44:23;;;;;;;29.48;19.15;;;;;;;;;;5053404;27;92367;-75
2023/04/17 10:46:50;;;;;;;26.15;17.92;;;;;;;;;;5064401;27;92628;-75
2023/04/17 10:49:16;;;;;;;30.98;17.88;;;;;;;;;;5062696;27;95764;-75
2023/04/17 10:51:42;;;;;;;30.25;20.33;;;;;;;;;;5060627;27;96727;-75
2023/04/17 10:54:09;;;;;;;29.63;19.33;;;;;;;;;;5053574;27;93636;-75
2023/04/17 10:56:37;;;;;;;24.88;18.90;;;;;;;;;;5039699;27;93773;-74
2023/04/17 10:59:07;;;;;;;35.58;18.98;;;;;;;;;;5063092;27;93327;-74
2023/04/17 11:01:39;;;;;;;33.83;19.48;;;;;;;;;;5072975;27;92630;-74
2023/04/17 11:04:06;;;;;;;26.13;18.50;;;;;;;;;;5054538;27;93372;-74
2023/04/17 11:06:36;;;;;;;23.65;17.95;;;;;;;;;;5060322;27;92620;-72
2023/04/17 11:09:06;;;;;;;29.45;18.77;;;;;;;;;;5064015;27;92365;-72
2023/04/17 11:11:36;;;;;;;27.23;18.65;;;;;;;;;;5070478;27;93662;-73
2023/04/17 11:14:09;;;;;;;27.27;19.65;;;;;;;;;;5071847;27;96355;-72
2023/04/17 11:16:40;;;;;;;26.98;19.10;;;;;;;;;;5070514;27;92952;-72
2023/04/17 11:19:11;;;;;;;27.55;18.80;;;;;;;;;;5055930;27;94726;-74
2023/04/17 11:21:41;;;;;;;30.02;19.10;;;;;;;;;;5069337;27;93571;-74
2023/04/17 11:24:08;;;;;;;24.53;18.23;;;;;;;;;;5060243;27;94064;-74
2023/04/17 11:26:41;;;;;;;23.45;18.20;;;;;;;;;;5071347;27;94470;-74
2023/04/17 11:29:18;;;;;;;24.52;18.80;;;;;;;;;;5060519;27;92564;-74
2023/04/17 11:31:45;;;;;;;28.33;20.00;;;;;;;;;;5053769;27;93197;-74
2023/04/17 11:34:12;;;;;;;29.08;19.73;;;;;;;;;;5056787;27;94000;-74
2023/04/17 11:36:38;;;;;;;27.08;18.98;;;;;;;;;;5064588;27;92534;-74
2023/04/17 11:39:04;;;;;;;27.00;19.08;;;;;;;;;;5071957;27;95036;-74
2023/04/17 11:41:34;;;;;;;31.95;19.73;;;;;;;;;;5067794;27;93654;-75
2023/04/17 11:44:01;;;;;;;32.20;19.65;;;;;;;;;;5062424;27;92519;-75
2023/04/17 11:46:28;;;;;;;26.23;19.40;;;;;;;;;;5070885;27;93495;-74
2023/04/17 11:48:54;;;;;;;27.77;19.38;;;;;;;;;;5072808;27;92403;-75
2023/04/17 11:51:20;;;;;;;30.23;18.65;;;;;;;;;;5073693;27;97171;-74
2023/04/17 11:53:47;;;;;;;26.35;17.38;;;;;;;;;;5062922;27;93503;-74
2023/04/17 11:56:14;;;;;;;28.42;18.05;;;;;;;;;;5065166;27;91751;-73
2023/04/17 11:58:50;;;;;;;24.27;16.75;;;;;;;;;;5075788;27;92470;-75
2023/04/17 12:01:17;;;;;;;23.67;16.70;;;;;;;;;;5058448;27;94051;-75
2023/04/17 12:03:46;;;;;;;28.30;17.33;;;;;;;;;;5076514;27;94987;-75
2023/04/17 12:06:14;;;;;;;22.73;16.60;;;;;;;;;;5077033;27;94378;-74
2023/04/17 12:08:43;;;;;;;26.15;17.20;;;;;;;;;;5058714;27;92536;-74
2023/04/17 12:11:21;;;;;;;19.10;15.63;;;;;;;;;;5076522;27;93176;-74
2023/04/17 12:13:47;;;;;;;21.23;15.57;;;;;;;;;;5075727;27;93412;-74
2023/04/17 12:16:14;;;;;;;19.27;15.13;;;;;;;;;;5074118;27;92421;-74
2023/04/17 12:18:40;;;;;;;23.65;15.60;;;;;;;;;;5043535;27;93289;-74
2023/04/17 12:21:06;;;;;;;21.73;15.30;;;;;;;;;;5062152;27;93009;-74
2023/04/17 12:23:33;;;;;;;20.75;13.70;;;;;;;;;;5075522;27;92503;-74
2023/04/17 12:25:59;;;;;;;21.35;15.32;;;;;;;;;;5065527;27;93220;-74
2023/04/17 12:28:25;;;;;;;18.98;14.55;;;;;;;;;;5069726;27;96004;-74
2023/04/17 12:30:52;;;;;;;22.25;14.90;;;;;;;;;;5064241;27;96681;-74
2023/04/17 12:33:18;;;;;;;24.02;14.88;;;;;;;;;;5074327;27;94542;-74
2023/04/17 12:35:44;;;;;;;22.48;15.48;;;;;;;;;;5063459;27;92491;-74
2023/04/17 12:38:11;;;;;;;20.95;14.02;;;;;;;;;;5070855;27;93282;-74
2023/04/17 12:40:41;;;;;;;25.20;15.20;;;;;;;;;;5070899;27;93442;-74
2023/04/17 12:43:08;;;;;;;;;;;;;;;;;;5076086;27;92384;-74
2023/04/17 12:45:35;;;;;;;17.90;12.80;;;;;;;;;;5070673;27;123238;-74
2023/04/17 12:48:07;;;;;;;18.38;14.20;;;;;;;;;;5060777;27;93820;-74
2023/04/17 12:50:41;;;;;;;20.48;13.25;;;;;;;;;;5074420;27;94218;-74
2023/04/17 12:53:08;;;;;;;18.08;13.98;;;;;;;;;;5074696;27;95744;-74
2023/04/17 12:55:37;;;;;;;20.05;13.85;;;;;;;;;;5071939;27;92472;-74
2023/04/17 12:58:05;;;;;;;21.52;15.00;;;;;;;;;;5058259;27;96296;-74
2023/04/17 13:00:31;;;;;;;22.40;14.13;;;;;;;;;;5039070;27;94292;-74
2023/04/17 13:02:58;;;;;;;17.80;13.98;;;;;;;;;;5071944;27;92813;-74
2023/04/17 13:05:25;;;;;;;21.92;13.27;;;;;;;;;;5073669;27;93218;-75
2023/04/17 13:07:51;;;;;;;17.90;12.63;;;;;;;;;;5068657;27;93337;-76
2023/04/17 13:10:18;;;;;;;18.60;13.35;;;;;;;;;;5059337;27;91711;-76
2023/04/17 13:12:44;;;;;;;18.55;12.55;;;;;;;;;;5066451;27;93452;-75
2023/04/17 13:15:12;;;;;;;17.25;13.25;;;;;;;;;;5075372;27;92410;-76
2023/04/17 13:17:38;;;;;;;18.88;13.05;;;;;;;;;;5061280;27;96440;-76
2023/04/17 13:20:05;;;;;;;13.50;9.63;;;;;;;;;;5064724;27;93517;-74
2023/04/17 13:22:31;;;;;;;14.75;8.00;;;;;;;;;;5058954;27;92458;-75
2023/04/17 13:24:58;;;;;;;13.35;9.05;;;;;;;;;;5057703;27;92446;-76
2023/04/17 13:27:25;;;;;;;11.43;7.43;;;;;;;;;;5063874;27;93595;-75
2023/04/17 15:48:09;;;;;;;27.73;9.48;;;;;;;;;;4988472;28;88178;-71
2023/04/17 15:50:36;;;;;;;15.60;11.02;;;;;;;;;;4984192;28;86945;-69
2023/04/17 15:53:02;;;;;;;15.65;12.15;;;;;;;;;;4980190;28;89202;-69
2023/04/17 15:55:28;;;;;;;16.52;12.25;;;;;;;;;;4986149;28;89285;-68
2023/04/17 15:57:55;;;;;;;16.02;12.65;;;;;;;;;;4986106;28;90087;-67
2023/04/17 16:00:21;;;;;;;14.20;11.52;;;;;;;;;;4985202;28;89041;-68
2023/04/17 16:02:47;;;;;;;19.15;12.88;;;;;;;;;;4980707;28;89145;-69
2023/04/17 16:05:14;;;;;;;18.85;12.48;;;;;;;;;;5004347;28;90726;-68
2023/04/17 16:07:40;;;;;;;14.32;11.75;;;;;;;;;;4995624;28;89555;-68
2023/04/17 16:10:12;;;;;;;24.58;12.73;;;;;;;;;;4992573;28;90110;-67
2023/04/17 16:12:42;;;;;;;14.50;10.90;;;;;;;;;;4991054;28;89632;-67
2023/04/17 16:15:10;;;;;;;14.45;11.32;;;;;;;;;;4991794;28;88963;-67
2023/04/17 16:17:36;;;;;;;16.33;11.98;;;;;;;;;;4994429;28;89909;-67
2023/04/17 16:20:03;;;;;;;21.33;11.05;;;;;;;;;;4994139;28;89735;-68
2023/04/17 16:22:30;;;;;;;14.05;10.93;;;;;;;;;;4991615;28;89028;-68
2023/04/17 16:24:57;;;;;;;10.77;8.70;;;;;;;;;;4990369;28;89967;-69
2023/04/17 16:27:26;;;;;;;13.32;9.02;;;;;;;;;;4993825;28;88737;-69
2023/04/17 16:29:53;;;;;;;16.25;7.90;;;;;;;;;;4996975;28;87491;-69
2023/04/17 16:32:19;;;;;;;9.05;7.47;;;;;;;;;;4993114;28;87370;-69
2023/04/17 16:34:46;;;;;;;17.58;8.30;;;;;;;;;;4992445;28;87403;-68
2023/04/17 16:37:13;;;;;;;11.07;7.45;;;;;;;;;;4993966;28;87985;-69